Huvudsida
METAR-TAF:

METAR-TAF

Flygplatser :

Vadsø flygplats

Vadsø, Norge

latitud: 70-04N, longitud: 029-51E, höjd: 3 m

Aktuellt väderrapport

Denna rapport gjordes för 1 timme och 3 minuter sedan, klockan 11:50 UTC
Vind 7 kt från väst/sydväst
Temperatur 18°C
Fuktighet 59%
Tryck 1002 hPa
Sikt 10 km eller mer
Få moln på en höjd av 1500 ft

METAR: ENVD 181150Z 25007KT 9999 FEW015 18/10 Q1002

Tid: 14:53 (12:53 UTC)

Väderprognos

Denna rapport gjordes för 1 timme och 53 minuter sedan, klockan 11:00 UTC
Prognos gäller från 18 kl. 12 UTC till 18 kl. 15 UTC
Vind 8 kt från väst/sydväst
Sikt 10 km eller mer
Spridda moln på en höjd av 1500 ft
Blir
från 18 kl. 13 UTC till 18 kl. 15 UTC
Vind 12 kt från ost/sydost

TAF: ENVD 181100Z 1812/1815 25008KT 9999 SCT015 BECMG 1813/1815 11012KT

Aktuella väderrapporter och prognoser från 4000 flygplatser (METAR- och TAF-rapporter).

De tillgängliga stationerna syns som gula och röda prickar på kartan.

För musen över prickarna för att se namnen på stationerna.

Klicka sedan för att få väderrapporter och prognoser.

För att ändra kartan: Klicka på de gröna knapparna med ett svart kors på för att zooma in; den gröna knappen med ett streck på för att zooma ut; eller på de gröna pilarna för angränsande kartor.


METAR-TAF: